createdAt,value
2019-01-09T00:00:35.698Z,5.70
2019-01-09T00:03:03.131Z,5.60
2019-01-09T00:05:30.546Z,5.60
2019-01-09T00:07:57.850Z,5.40
2019-01-09T00:10:25.657Z,5.30
2019-01-09T00:12:52.942Z,5.30
2019-01-09T00:15:20.268Z,5.60
2019-01-09T00:17:47.662Z,5.70
2019-01-09T00:20:15.078Z,5.80
2019-01-09T00:22:42.635Z,5.80
2019-01-09T00:25:10.080Z,5.80
2019-01-09T00:27:37.486Z,5.80
2019-01-09T00:30:05.190Z,5.90
2019-01-09T00:32:32.629Z,5.90
2019-01-09T00:35:00.317Z,5.40
2019-01-09T00:37:27.689Z,5.40
2019-01-09T00:39:55.000Z,5.50
2019-01-09T00:42:22.745Z,5.20
2019-01-09T00:44:50.050Z,5.00
2019-01-09T00:47:17.454Z,5.10
2019-01-09T00:49:44.879Z,5.20
2019-01-09T00:52:12.285Z,5.10
2019-01-09T00:54:39.711Z,5.40
2019-01-09T00:57:07.277Z,5.60
2019-01-09T00:59:34.631Z,5.80
2019-01-09T01:02:19.633Z,5.70
2019-01-09T01:05:05.106Z,5.80
2019-01-09T01:08:09.506Z,5.40
2019-01-09T01:11:31.027Z,5.30
2019-01-09T01:14:28.652Z,5.00
2019-01-09T01:17:43.145Z,5.30
2019-01-09T01:20:29.789Z,5.60
2019-01-09T01:23:34.243Z,5.20
2019-01-09T01:26:37.658Z,5.30
2019-01-09T01:29:31.674Z,5.40
2019-01-09T01:32:21.577Z,5.30
2019-01-09T01:35:26.283Z,5.60
2019-01-09T01:38:37.044Z,5.40
2019-01-09T01:41:41.647Z,5.20
2019-01-09T01:44:30.626Z,5.50
2019-01-09T01:47:31.138Z,5.40
2019-01-09T01:50:43.094Z,5.30
2019-01-09T01:53:36.494Z,4.80
2019-01-09T01:56:42.820Z,5.20
2019-01-09T01:59:27.044Z,5.40
2019-01-09T02:02:32.558Z,5.80
2019-01-09T02:05:16.610Z,6.00
2019-01-09T02:08:33.661Z,5.90
2019-01-09T02:11:57.050Z,5.40
2019-01-09T02:15:05.339Z,5.70
2019-01-09T02:18:08.327Z,5.80
2019-01-09T02:21:25.982Z,5.50
2019-01-09T02:24:20.383Z,5.60
2019-01-09T02:27:24.980Z,5.50
2019-01-09T02:30:13.394Z,5.50
2019-01-09T02:32:41.146Z,5.30
2019-01-09T02:35:08.447Z,5.50
2019-01-09T02:37:35.755Z,5.30
2019-01-09T02:40:03.277Z,5.40
2019-01-09T02:42:30.726Z,5.50
2019-01-09T02:44:58.068Z,5.40
2019-01-09T02:47:25.347Z,5.60
2019-01-09T02:49:52.667Z,5.80
2019-01-09T02:52:20.389Z,5.70
2019-01-09T02:54:47.746Z,5.60
2019-01-09T02:57:15.130Z,5.40
2019-01-09T02:59:42.467Z,5.20
2019-01-09T03:02:09.867Z,5.30
2019-01-09T03:04:37.277Z,5.20
2019-01-09T03:07:04.647Z,5.40
2019-01-09T03:09:31.930Z,5.80
2019-01-09T03:11:59.211Z,5.70
2019-01-09T03:14:26.484Z,5.60
2019-01-09T03:16:53.800Z,5.80
2019-01-09T03:19:21.050Z,5.90
2019-01-09T03:21:48.448Z,5.80
2019-01-09T03:24:15.822Z,5.70
2019-01-09T03:26:43.119Z,5.90
2019-01-09T03:29:10.429Z,5.70
2019-01-09T03:31:37.720Z,5.40
2019-01-09T03:34:05.032Z,5.40
2019-01-09T03:36:33.226Z,5.60
2019-01-09T03:39:00.739Z,5.60
2019-01-09T03:41:28.434Z,5.30
2019-01-09T03:43:55.712Z,5.20
2019-01-09T03:46:23.051Z,5.20
2019-01-09T03:48:50.347Z,5.10
2019-01-09T03:51:17.766Z,5.20
2019-01-09T03:53:45.494Z,5.10
2019-01-09T03:56:12.813Z,5.30
2019-01-09T03:58:40.182Z,5.40
2019-01-09T04:01:07.771Z,5.00
2019-01-09T04:03:35.061Z,5.20
2019-01-09T04:06:02.340Z,5.50
2019-01-09T04:08:30.022Z,5.60
2019-01-09T04:10:57.313Z,5.60
2019-01-09T04:13:24.712Z,5.80
2019-01-09T04:15:52.039Z,5.90
2019-01-09T04:18:19.443Z,5.90
2019-01-09T04:20:46.799Z,5.90
2019-01-09T04:23:14.378Z,5.50
2019-01-09T04:25:41.642Z,5.50
2019-01-09T04:28:09.045Z,5.10
2019-01-09T04:30:36.333Z,4.90
2019-01-09T04:33:03.623Z,5.20
2019-01-09T04:35:30.943Z,5.30
2019-01-09T04:37:58.383Z,5.20
2019-01-09T04:40:25.689Z,5.10
2019-01-09T04:42:52.992Z,5.40
2019-01-09T04:45:20.422Z,5.50
2019-01-09T04:47:47.799Z,5.80
2019-01-09T04:50:15.117Z,5.90
2019-01-09T04:52:42.527Z,5.70
2019-01-09T04:55:09.955Z,5.30
2019-01-09T04:57:37.359Z,5.10
2019-01-09T05:00:05.185Z,4.70
2019-01-09T05:02:32.517Z,5.10
2019-01-09T05:04:59.972Z,5.50
2019-01-09T05:07:27.323Z,5.70
2019-01-09T05:09:55.010Z,5.80
2019-01-09T05:12:22.397Z,5.80
2019-01-09T05:14:50.185Z,5.80
2019-01-09T05:17:17.548Z,5.60
2019-01-09T05:19:44.868Z,5.70
2019-01-09T05:22:12.235Z,5.70
2019-01-09T05:24:39.670Z,5.90
2019-01-09T05:27:06.975Z,6.10
2019-01-09T05:29:34.333Z,5.80
2019-01-09T05:32:01.719Z,5.30
2019-01-09T05:34:29.130Z,5.50
2019-01-09T05:36:57.832Z,5.60
2019-01-09T05:39:25.545Z,5.90
2019-01-09T05:41:52.951Z,6.10
2019-01-09T05:44:20.335Z,5.80
2019-01-09T05:46:47.621Z,5.80
2019-01-09T05:49:15.021Z,5.90
2019-01-09T05:51:42.331Z,5.80
2019-01-09T05:54:09.771Z,5.80
2019-01-09T05:56:37.499Z,6.20
2019-01-09T05:59:05.218Z,5.80
2019-01-09T06:01:32.643Z,5.70
2019-01-09T06:04:00.057Z,5.80
2019-01-09T06:06:27.430Z,5.70
2019-01-09T06:08:54.846Z,5.40
2019-01-09T06:11:22.158Z,5.20
2019-01-09T06:13:49.873Z,5.20
2019-01-09T06:16:17.288Z,5.40
2019-01-09T06:18:44.690Z,5.80
2019-01-09T06:21:11.993Z,5.70
2019-01-09T06:23:41.626Z,5.90
2019-01-09T06:26:08.926Z,5.70
2019-01-09T06:28:36.371Z,5.90
2019-01-09T06:31:03.789Z,6.00
2019-01-09T06:33:31.167Z,5.90
2019-01-09T06:35:58.581Z,5.80
2019-01-09T06:38:26.002Z,6.00
2019-01-09T06:40:53.427Z,5.80
2019-01-09T06:43:20.719Z,6.10
2019-01-09T06:45:48.073Z,6.50
2019-01-09T06:48:15.381Z,6.60
2019-01-09T06:50:42.790Z,6.70
2019-01-09T06:53:10.154Z,6.30
2019-01-09T06:55:37.525Z,5.90
2019-01-09T06:58:05.230Z,6.00
2019-01-09T07:00:32.649Z,6.30
2019-01-09T07:03:00.027Z,6.50
2019-01-09T07:05:27.335Z,6.70
2019-01-09T07:07:54.621Z,6.70
2019-01-09T07:10:22.065Z,6.60
2019-01-09T07:12:49.445Z,6.40
2019-01-09T07:15:16.907Z,6.30
2019-01-09T07:17:44.258Z,6.20
2019-01-09T07:20:11.692Z,6.10
2019-01-09T07:22:39.070Z,6.30
2019-01-09T07:25:06.477Z,6.40
2019-01-09T07:27:33.757Z,6.00
2019-01-09T07:30:01.082Z,6.10
2019-01-09T07:32:28.402Z,6.00
2019-01-09T07:34:55.720Z,6.00
2019-01-09T07:37:23.101Z,6.10
2019-01-09T07:39:50.508Z,6.30
2019-01-09T07:42:17.794Z,6.40
2019-01-09T07:44:45.332Z,6.30
2019-01-09T07:47:12.714Z,6.30
2019-01-09T07:49:40.129Z,6.30
2019-01-09T07:52:07.516Z,6.40
2019-01-09T07:54:34.810Z,6.30
2019-01-09T07:57:02.529Z,6.10
2019-01-09T07:59:29.932Z,6.20
2019-01-09T08:01:57.626Z,6.40
2019-01-09T08:04:24.903Z,5.90
2019-01-09T08:06:52.264Z,5.90
2019-01-09T08:09:19.655Z,5.90
2019-01-09T08:11:46.986Z,6.10
2019-01-09T08:14:14.580Z,6.20
2019-01-09T08:16:41.909Z,6.30
2019-01-09T08:19:09.562Z,6.30
2019-01-09T08:21:36.849Z,6.40
2019-01-09T08:24:04.255Z,6.60
2019-01-09T08:26:31.672Z,6.60
2019-01-09T08:28:58.978Z,6.50
2019-01-09T08:31:26.399Z,6.40
2019-01-09T08:33:53.809Z,6.50
2019-01-09T08:36:21.241Z,6.20
2019-01-09T08:38:48.667Z,6.20
2019-01-09T08:41:16.384Z,6.40
2019-01-09T08:43:43.818Z,6.50
2019-01-09T08:46:11.128Z,6.60
2019-01-09T08:48:38.528Z,6.30
2019-01-09T08:51:05.918Z,6.50
2019-01-09T08:53:33.222Z,6.60
2019-01-09T08:56:00.549Z,6.60
2019-01-09T08:58:27.949Z,6.60
2019-01-09T09:00:55.247Z,6.60
2019-01-09T09:03:22.569Z,6.30
2019-01-09T09:05:49.972Z,6.40
2019-01-09T09:08:19.007Z,6.30
2019-01-09T09:10:46.420Z,6.00
2019-01-09T09:13:35.268Z,5.40
2019-01-09T09:16:03.284Z,5.40
2019-01-09T09:18:30.588Z,5.80
2019-01-09T09:20:58.010Z,5.90
2019-01-09T09:23:25.404Z,5.90
2019-01-09T09:25:52.728Z,6.00
2019-01-09T09:28:20.488Z,6.20
2019-01-09T09:30:47.922Z,6.50
2019-01-09T09:33:15.270Z,6.70
2019-01-09T09:35:42.700Z,6.80
2019-01-09T09:38:10.123Z,6.90
2019-01-09T09:40:37.538Z,6.90
2019-01-09T09:43:04.976Z,6.90
2019-01-09T09:45:32.426Z,7.10
2019-01-09T09:47:59.824Z,7.00
2019-01-09T09:50:27.275Z,6.80
2019-01-09T09:52:54.657Z,6.40
2019-01-09T09:55:22.004Z,6.30
2019-01-09T09:57:49.298Z,6.40
2019-01-09T10:00:18.886Z,6.30
2019-01-09T10:02:46.218Z,5.90
2019-01-09T10:05:13.545Z,5.60
2019-01-09T10:07:40.869Z,5.80
2019-01-09T10:10:09.862Z,5.80
2019-01-09T10:12:37.726Z,5.90
2019-01-09T10:15:05.556Z,6.10
2019-01-09T10:17:33.249Z,6.00
2019-01-09T10:20:00.556Z,6.10
2019-01-09T10:22:27.978Z,6.10
2019-01-09T10:24:55.578Z,6.10
2019-01-09T10:27:22.970Z,6.10
2019-01-09T10:29:50.386Z,6.20
2019-01-09T10:32:17.804Z,6.30
2019-01-09T10:34:45.602Z,6.20
2019-01-09T10:37:12.950Z,6.50
2019-01-09T10:39:40.286Z,6.80
2019-01-09T10:42:08.338Z,6.90
2019-01-09T10:44:35.736Z,6.70
2019-01-09T10:47:03.175Z,6.80
2019-01-09T10:49:30.495Z,6.90
2019-01-09T10:51:57.928Z,6.90
2019-01-09T10:54:25.305Z,6.90
2019-01-09T10:56:52.626Z,6.60
2019-01-09T10:59:19.932Z,6.60
2019-01-09T11:01:47.687Z,6.60
2019-01-09T11:04:15.285Z,6.90
2019-01-09T11:06:42.689Z,6.90
2019-01-09T11:09:10.085Z,6.90
2019-01-09T11:11:37.494Z,6.70
2019-01-09T11:14:05.088Z,6.90
2019-01-09T11:16:32.391Z,6.90
2019-01-09T11:18:59.786Z,7.00
2019-01-09T11:21:27.762Z,7.10
2019-01-09T11:23:55.105Z,7.00
2019-01-09T11:26:22.551Z,7.10
2019-01-09T11:28:49.867Z,7.20
2019-01-09T11:31:17.270Z,7.10
2019-01-09T11:33:44.684Z,7.10
2019-01-09T11:36:12.006Z,6.90
2019-01-09T11:38:39.440Z,6.80
2019-01-09T11:41:07.136Z,6.70
2019-01-09T11:43:34.731Z,6.90
2019-01-09T11:46:02.151Z,7.10
2019-01-09T11:48:29.860Z,7.20
2019-01-09T11:50:57.265Z,7.20
2019-01-09T11:53:24.692Z,7.20
2019-01-09T11:55:52.046Z,7.30
2019-01-09T11:58:19.481Z,7.10
2019-01-09T12:00:46.867Z,6.90
2019-01-09T12:03:14.594Z,7.10
2019-01-09T12:05:42.028Z,7.00
2019-01-09T12:08:09.478Z,7.10
2019-01-09T12:10:36.891Z,7.30
2019-01-09T12:13:04.337Z,7.10
2019-01-09T12:15:31.678Z,7.00
2019-01-09T12:17:59.519Z,6.70
2019-01-09T12:20:26.966Z,6.90
2019-01-09T12:22:54.887Z,6.90
2019-01-09T12:25:22.299Z,6.50
2019-01-09T12:27:49.720Z,6.70
2019-01-09T12:30:20.311Z,6.80
2019-01-09T12:32:47.651Z,7.00
2019-01-09T12:35:15.066Z,7.20
2019-01-09T12:37:42.754Z,7.10
2019-01-09T12:40:10.165Z,7.10
2019-01-09T12:42:37.499Z,7.40
2019-01-09T12:45:06.003Z,7.40
2019-01-09T12:47:37.504Z,7.20
2019-01-09T12:50:03.490Z,6.70
2019-01-09T12:52:30.910Z,6.70
2019-01-09T12:54:58.606Z,7.10
2019-01-09T12:57:26.013Z,6.90
2019-01-09T12:59:53.950Z,7.00
2019-01-09T13:02:21.335Z,7.10
2019-01-09T13:04:48.744Z,7.20
2019-01-09T13:07:16.129Z,7.20
2019-01-09T13:09:43.568Z,7.50
2019-01-09T13:12:11.161Z,7.70
2019-01-09T13:14:38.481Z,7.60
2019-01-09T13:17:11.818Z,7.60
2019-01-09T13:19:35.079Z,7.30
2019-01-09T13:22:02.516Z,7.50
2019-01-09T13:24:29.979Z,7.70
2019-01-09T13:26:57.373Z,7.80
2019-01-09T13:29:24.821Z,7.70
2019-01-09T13:31:52.548Z,7.60
2019-01-09T13:34:20.020Z,7.60
2019-01-09T13:36:47.433Z,7.50
2019-01-09T13:39:15.729Z,7.10
2019-01-09T13:41:43.062Z,6.90
2019-01-09T13:44:10.423Z,7.10
2019-01-09T13:46:37.895Z,7.00
2019-01-09T13:49:05.343Z,6.70
2019-01-09T13:51:32.796Z,6.60
2019-01-09T13:54:00.232Z,6.70
2019-01-09T13:56:27.881Z,7.00
2019-01-09T13:58:55.312Z,6.70
2019-01-09T14:01:22.724Z,6.70
2019-01-09T14:03:50.089Z,6.60
2019-01-09T14:06:17.517Z,6.80
2019-01-09T14:08:45.032Z,6.80
2019-01-09T14:11:12.489Z,7.00
2019-01-09T14:13:40.551Z,7.20
2019-01-09T14:16:07.996Z,7.30
2019-01-09T14:18:35.406Z,7.30
2019-01-09T14:21:02.752Z,7.20
2019-01-09T14:23:30.165Z,7.20
2019-01-09T14:25:57.982Z,7.00
2019-01-09T14:28:25.412Z,7.10
2019-01-09T14:30:52.848Z,6.90
2019-01-09T14:33:20.298Z,6.70
2019-01-09T14:35:47.770Z,6.70
2019-01-09T14:38:15.206Z,6.60
2019-01-09T14:40:42.681Z,6.80
2019-01-09T14:43:10.026Z,6.80
2019-01-09T14:45:37.381Z,6.40
2019-01-09T14:48:04.750Z,6.20
2019-01-09T14:50:32.158Z,6.40
2019-01-09T14:53:02.149Z,6.30
2019-01-09T14:55:29.596Z,6.30
2019-01-09T14:57:56.961Z,5.80
2019-01-09T15:00:26.263Z,6.00
2019-01-09T15:02:53.791Z,6.40
2019-01-09T15:05:21.219Z,6.50
2019-01-09T15:07:48.651Z,6.10
2019-01-09T15:10:18.634Z,5.60
2019-01-09T15:12:49.261Z,5.30
2019-01-09T15:15:17.116Z,5.60
2019-01-09T15:17:44.603Z,6.10
2019-01-09T15:20:14.109Z,5.90
2019-01-09T15:22:41.525Z,6.20
2019-01-09T15:25:09.220Z,6.40
2019-01-09T15:27:36.683Z,6.30
2019-01-09T15:30:10.968Z,6.30
2019-01-09T15:32:38.376Z,6.40
2019-01-09T15:35:06.897Z,6.50
2019-01-09T15:37:34.306Z,6.40
2019-01-09T15:40:06.055Z,6.30
2019-01-09T15:42:34.178Z,6.30
2019-01-09T15:45:01.656Z,6.50
2019-01-09T15:47:29.109Z,6.50
2019-01-09T15:49:56.555Z,6.60
2019-01-09T15:52:23.943Z,6.40
2019-01-09T15:54:51.768Z,6.40
2019-01-09T15:57:19.427Z,6.40
2019-01-09T15:59:46.885Z,6.30
2019-01-09T16:02:14.734Z,6.10
2019-01-09T16:04:42.465Z,6.00
2019-01-09T16:07:10.028Z,6.20
2019-01-09T16:09:37.738Z,6.10
2019-01-09T16:12:05.220Z,6.10
2019-01-09T16:14:32.687Z,6.30
2019-01-09T16:17:00.154Z,6.30
2019-01-09T16:19:27.545Z,6.50
2019-01-09T16:21:55.073Z,6.50
2019-01-09T16:24:22.684Z,6.50
2019-01-09T16:26:50.339Z,6.40
2019-01-09T16:29:17.687Z,6.50
2019-01-09T16:31:45.576Z,6.40
2019-01-09T16:34:13.100Z,6.20
2019-01-09T16:36:40.574Z,6.20
2019-01-09T16:39:09.528Z,6.20
2019-01-09T16:41:37.604Z,6.30
2019-01-09T16:44:05.285Z,6.30
2019-01-09T16:46:32.758Z,6.50
2019-01-09T16:49:00.177Z,6.50
2019-01-09T16:51:27.671Z,6.20
2019-01-09T16:53:55.199Z,6.20
2019-01-09T16:56:22.686Z,6.30
2019-01-09T16:58:50.399Z,6.30
2019-01-09T17:01:17.926Z,6.20
2019-01-09T17:03:45.506Z,6.20
2019-01-09T17:06:13.256Z,6.20
2019-01-09T17:08:41.074Z,6.10
2019-01-09T17:11:08.523Z,5.90
2019-01-09T17:13:36.044Z,6.10
2019-01-09T17:16:03.890Z,6.30
2019-01-09T17:18:31.399Z,6.30
2019-01-09T17:20:59.134Z,6.30
2019-01-09T17:23:26.654Z,6.20
2019-01-09T17:25:54.332Z,6.00
2019-01-09T17:28:21.779Z,5.90
2019-01-09T17:30:49.235Z,5.70
2019-01-09T17:33:16.813Z,6.00
2019-01-09T17:35:44.290Z,6.10
2019-01-09T17:38:11.828Z,6.10
2019-01-09T17:40:41.262Z,6.00
2019-01-09T17:43:08.707Z,6.10
2019-01-09T17:45:36.188Z,6.00
2019-01-09T17:48:04.320Z,6.10
2019-01-09T17:50:33.280Z,6.20
2019-01-09T17:53:00.788Z,6.20
2019-01-09T17:55:28.349Z,6.30
2019-01-09T17:57:55.849Z,6.40
2019-01-09T18:00:26.176Z,6.30
2019-01-09T18:02:55.503Z,6.00
2019-01-09T18:05:23.520Z,5.70
2019-01-09T18:07:52.243Z,5.60
2019-01-09T18:10:21.196Z,5.70
2019-01-09T18:12:49.331Z,5.90
2019-01-09T18:15:19.746Z,5.90
2019-01-09T18:17:49.187Z,5.80
2019-01-09T18:20:16.895Z,6.00
2019-01-09T18:22:45.201Z,6.10
2019-01-09T18:25:15.573Z,6.10
2019-01-09T18:27:44.350Z,6.30
2019-01-09T18:30:22.398Z,6.10
2019-01-09T18:33:03.371Z,6.10
2019-01-09T18:35:46.633Z,6.10
2019-01-09T18:38:40.247Z,6.00
2019-01-09T18:41:45.319Z,6.00
2019-01-09T18:44:30.213Z,6.30
2019-01-09T18:47:16.861Z,6.30
2019-01-09T18:50:35.334Z,6.30
2019-01-09T18:53:28.420Z,6.10
2019-01-09T18:55:56.917Z,5.80
2019-01-09T18:58:25.015Z,5.70
2019-01-09T19:00:52.984Z,5.90
2019-01-09T19:03:21.005Z,5.90
2019-01-09T19:05:49.330Z,5.80
2019-01-09T19:08:17.264Z,5.70
2019-01-09T19:10:45.760Z,5.90
2019-01-09T19:13:13.807Z,6.00
2019-01-09T19:15:42.058Z,5.90
2019-01-09T19:18:10.024Z,6.10
2019-01-09T19:20:38.282Z,6.20
2019-01-09T19:23:05.854Z,6.10
2019-01-09T19:25:33.338Z,6.00
2019-01-09T19:28:00.874Z,6.10
2019-01-09T19:30:29.531Z,5.90
2019-01-09T19:32:57.558Z,6.00
2019-01-09T19:35:25.412Z,5.90
2019-01-09T19:37:53.237Z,5.80
2019-01-09T19:40:20.964Z,5.90
2019-01-09T19:42:48.594Z,6.00
2019-01-09T19:45:16.228Z,6.10
2019-01-09T19:47:43.798Z,6.00
2019-01-09T19:50:15.151Z,6.10
2019-01-09T19:52:42.746Z,5.90
2019-01-09T19:55:10.973Z,6.00
2019-01-09T19:57:38.512Z,5.70
2019-01-09T20:00:08.851Z,5.80
2019-01-09T20:02:36.560Z,5.70
2019-01-09T20:05:04.853Z,5.90
2019-01-09T20:07:32.332Z,5.80
2019-01-09T20:10:00.245Z,5.80
2019-01-09T20:12:27.755Z,5.60
2019-01-09T20:14:56.233Z,5.90
2019-01-09T20:17:24.140Z,5.80
2019-01-09T20:19:51.689Z,5.60
2019-01-09T20:22:19.244Z,5.40
2019-01-09T20:24:46.995Z,5.30
2019-01-09T20:27:14.534Z,5.30
2019-01-09T20:29:42.090Z,5.50
2019-01-09T20:32:09.971Z,5.40
2019-01-09T20:34:37.848Z,5.70
2019-01-09T20:37:05.518Z,5.80
2019-01-09T20:39:33.010Z,5.90
2019-01-09T20:42:00.717Z,5.80
2019-01-09T20:44:28.706Z,5.80
2019-01-09T20:46:56.285Z,5.70
2019-01-09T20:49:24.186Z,5.90
2019-01-09T20:51:51.676Z,5.80
2019-01-09T20:54:19.296Z,5.40
2019-01-09T20:56:46.820Z,5.70
2019-01-09T20:59:14.740Z,5.80
2019-01-09T21:01:42.172Z,6.00
2019-01-09T21:04:09.660Z,5.80
2019-01-09T21:06:37.144Z,5.90
2019-01-09T21:09:06.503Z,5.90
2019-01-09T21:11:34.031Z,5.80
2019-01-09T21:14:01.553Z,6.00
2019-01-09T21:16:29.048Z,6.00
2019-01-09T21:18:56.645Z,6.00
2019-01-09T21:21:25.006Z,6.00
2019-01-09T21:23:52.941Z,5.90
2019-01-09T21:26:20.454Z,5.90
2019-01-09T21:28:48.301Z,6.00
2019-01-09T21:31:15.757Z,6.20
2019-01-09T21:33:43.604Z,6.00
2019-01-09T21:36:11.110Z,6.00
2019-01-09T21:38:38.899Z,6.00
2019-01-09T21:41:06.478Z,5.90
2019-01-09T21:43:34.227Z,5.90
2019-01-09T21:46:01.653Z,6.10
2019-01-09T21:48:29.098Z,6.00
2019-01-09T21:50:56.558Z,6.10
2019-01-09T21:53:24.029Z,6.20
2019-01-09T21:55:51.512Z,6.20
2019-01-09T21:58:18.894Z,6.10
2019-01-09T22:00:46.401Z,5.90
2019-01-09T22:03:13.987Z,5.80
2019-01-09T22:05:41.396Z,5.70
2019-01-09T22:08:08.875Z,5.80
2019-01-09T22:10:37.044Z,5.90
2019-01-09T22:13:05.541Z,5.90
2019-01-09T22:15:32.980Z,6.10
2019-01-09T22:18:00.394Z,6.20
2019-01-09T22:20:27.966Z,6.10
2019-01-09T22:22:55.611Z,5.80
2019-01-09T22:25:23.376Z,5.70
2019-01-09T22:27:50.828Z,6.00
2019-01-09T22:30:20.899Z,6.10
2019-01-09T22:32:48.548Z,6.00
2019-01-09T22:35:16.379Z,5.70
2019-01-09T22:37:44.571Z,5.90
2019-01-09T22:40:13.487Z,6.10
2019-01-09T22:42:40.930Z,5.80
2019-01-09T22:45:09.893Z,5.90
2019-01-09T22:47:37.306Z,5.90
2019-01-09T22:50:05.877Z,6.10
2019-01-09T22:52:33.273Z,6.20
2019-01-09T22:55:00.621Z,6.00
2019-01-09T22:57:28.132Z,6.10
2019-01-09T22:59:55.574Z,5.80
2019-01-09T23:02:26.084Z,5.70
2019-01-09T23:04:53.512Z,5.70
2019-01-09T23:07:21.215Z,5.80
2019-01-09T23:09:48.626Z,6.00
2019-01-09T23:12:21.178Z,5.90
2019-01-09T23:14:45.258Z,5.90
2019-01-09T23:17:12.586Z,5.60
2019-01-09T23:19:39.995Z,5.50
2019-01-09T23:22:07.392Z,5.70
2019-01-09T23:24:34.774Z,5.90
2019-01-09T23:27:02.230Z,6.10
2019-01-09T23:29:29.638Z,6.10
2019-01-09T23:31:57.392Z,6.20
2019-01-09T23:34:24.743Z,6.20
2019-01-09T23:36:52.272Z,6.20
2019-01-09T23:39:19.718Z,6.00
2019-01-09T23:41:47.166Z,5.90
2019-01-09T23:44:14.577Z,5.90
2019-01-09T23:46:42.029Z,5.90
2019-01-09T23:49:09.427Z,5.90
2019-01-09T23:51:36.984Z,5.80
2019-01-09T23:54:04.452Z,5.90
2019-01-09T23:56:31.756Z,5.90
2019-01-09T23:58:59.396Z,5.90
